Time;durP1;ratioP1;P1;durP2;ratioP2;P2;SDS_P1;SDS_P2;PMS_P1;PMS_P2;Temp;Humidity;BMP_temperature;BMP_pressure;BME280_temperature;BME280_humidity;BME280_pressure;Samples;Min_cycle;Max_cycle;Signal;HPM_P1;HPM_P2
2022/11/29 00:01:25;;;;;;;37.33;23.92;;;;;;;;;;5081747;28;20405;-78
2022/11/29 00:03:51;;;;;;;35.35;25.05;;;;;;;;;;5076673;28;20435;-80
2022/11/29 00:06:19;;;;;;;39.95;26.17;;;;;;;;;;5080301;28;20431;-79
2022/11/29 00:08:46;;;;;;;36.43;24.80;;;;;;;;;;5073615;28;20940;-80
2022/11/29 00:12:10;;;;;;;39.95;26.02;;;;;;;;;;5075488;28;20426;-79
2022/11/29 00:14:01;;;;;;;45.95;27.40;;;;;;;;;;5076048;28;20896;-80
2022/11/29 00:16:28;;;;;;;43.20;25.90;;;;;;;;;;5080554;28;20406;-80
2022/11/29 00:18:55;;;;;;;42.80;26.80;;;;;;;;;;5080992;28;20412;-79
2022/11/29 00:21:22;;;;;;;40.67;26.23;;;;;;;;;;5073875;28;20437;-79
2022/11/29 00:23:49;;;;;;;42.95;26.20;;;;;;;;;;5078632;28;20422;-80
2022/11/29 00:26:15;;;;;;;41.47;25.85;;;;;;;;;;5077911;28;20438;-80
2022/11/29 00:28:42;;;;;;;44.83;27.38;;;;;;;;;;5075464;28;20429;-80
2022/11/29 00:31:13;;;;;;;42.13;26.40;;;;;;;;;;5073088;28;20426;-80
2022/11/29 00:33:42;;;;;;;47.28;26.67;;;;;;;;;;5084770;28;20414;-80
2022/11/29 00:36:08;;;;;;;50.97;27.58;;;;;;;;;;5078520;28;20941;-81
2022/11/29 00:38:34;;;;;;;44.70;26.15;;;;;;;;;;5080024;28;20428;-80
2022/11/29 00:41:01;;;;;;;40.42;26.08;;;;;;;;;;5080663;28;20418;-79
2022/11/29 00:43:27;;;;;;;44.10;27.83;;;;;;;;;;5080082;28;20409;-79
2022/11/29 00:45:55;;;;;;;48.70;28.60;;;;;;;;;;5078543;28;20420;-78
2022/11/29 00:48:22;;;;;;;45.58;27.55;;;;;;;;;;5078415;28;20411;-79
2022/11/29 00:50:50;;;;;;;42.72;25.92;;;;;;;;;;5082418;28;20422;-80
2022/11/29 00:53:16;;;;;;;45.63;26.15;;;;;;;;;;5076954;28;20427;-80
2022/11/29 00:55:43;;;;;;;50.10;27.77;;;;;;;;;;5075395;28;20412;-79
2022/11/29 00:58:09;;;;;;;48.67;27.38;;;;;;;;;;5071022;28;20421;-79
2022/11/29 01:00:36;;;;;;;48.28;28.05;;;;;;;;;;5086208;28;20417;-79
2022/11/29 01:03:02;;;;;;;51.72;28.73;;;;;;;;;;5079790;28;20438;-79
2022/11/29 01:05:31;;;;;;;46.78;27.00;;;;;;;;;;5080325;28;20406;-79
2022/11/29 01:07:58;;;;;;;50.75;29.13;;;;;;;;;;5075473;28;20427;-80
2022/11/29 01:10:26;;;;;;;51.08;29.33;;;;;;;;;;5076278;28;20837;-80
2022/11/29 01:12:52;;;;;;;47.00;28.15;;;;;;;;;;5083337;28;20423;-80
2022/11/29 01:15:19;;;;;;;44.90;27.95;;;;;;;;;;5077213;28;20479;-78
2022/11/29 01:17:45;;;;;;;51.20;28.00;;;;;;;;;;5084556;28;20426;-79
2022/11/29 01:20:13;;;;;;;47.90;28.83;;;;;;;;;;5078344;28;20436;-80
2022/11/29 01:22:39;;;;;;;55.53;29.55;;;;;;;;;;5076419;28;20424;-80
2022/11/29 01:25:11;;;;;;;48.90;28.20;;;;;;;;;;5082140;28;20442;-79
2022/11/29 01:27:38;;;;;;;48.53;27.67;;;;;;;;;;5081733;28;20430;-79
2022/11/29 01:30:06;;;;;;;48.88;28.20;;;;;;;;;;5081377;28;20434;-80
2022/11/29 01:32:32;;;;;;;50.60;28.13;;;;;;;;;;5071998;28;20431;-80
2022/11/29 01:34:59;;;;;;;44.97;27.55;;;;;;;;;;5077951;28;20425;-80
2022/11/29 01:37:25;;;;;;;48.33;28.52;;;;;;;;;;5080655;28;20425;-80
2022/11/29 01:39:53;;;;;;;40.92;26.63;;;;;;;;;;5078923;28;20420;-80
2022/11/29 01:42:21;;;;;;;46.78;27.60;;;;;;;;;;5085085;28;20517;-78
2022/11/29 01:45:15;;;;;;;47.30;27.70;;;;;;;;;;5079672;28;20430;-77
2022/11/29 01:47:44;;;;;;;46.25;28.23;;;;;;;;;;5008917;28;20428;-78
2022/11/29 01:50:13;;;;;;;44.20;27.77;;;;;;;;;;5076017;28;20420;-77
2022/11/29 01:52:39;;;;;;;42.53;26.90;;;;;;;;;;5078699;28;20795;-77
2022/11/29 01:55:08;;;;;;;46.40;27.85;;;;;;;;;;5075610;28;20450;-78
2022/11/29 01:57:38;;;;;;;43.75;27.70;;;;;;;;;;5077137;28;20937;-78
2022/11/29 02:00:07;;;;;;;48.97;27.88;;;;;;;;;;5077721;28;20426;-77
2022/11/29 02:02:36;;;;;;;49.53;28.58;;;;;;;;;;5081559;28;20438;-78
2022/11/29 02:05:04;;;;;;;47.78;27.67;;;;;;;;;;5074468;28;20430;-79
2022/11/29 02:07:31;;;;;;;44.33;26.30;;;;;;;;;;5072386;28;20427;-78
2022/11/29 02:09:57;;;;;;;50.10;28.30;;;;;;;;;;5075240;28;20500;-78
2022/11/29 02:12:29;;;;;;;44.03;26.48;;;;;;;;;;5076761;28;20434;-79
2022/11/29 02:15:05;;;;;;;49.10;27.90;;;;;;;;;;5076107;28;20402;-77
2022/11/29 02:17:34;;;;;;;49.47;27.52;;;;;;;;;;5078336;28;20437;-78
2022/11/29 02:20:25;;;;;;;48.75;28.60;;;;;;;;;;5079897;28;20419;-79
2022/11/29 02:22:54;;;;;;;51.00;28.50;;;;;;;;;;5056385;28;20518;-78
2022/11/29 02:25:31;;;;;;;53.22;28.80;;;;;;;;;;5077272;28;21055;-77
2022/11/29 02:28:22;;;;;;;52.33;28.15;;;;;;;;;;5075380;28;20432;-79
2022/11/29 02:31:03;;;;;;;52.17;27.80;;;;;;;;;;5081288;28;20817;-77
2022/11/29 02:33:48;;;;;;;54.20;29.02;;;;;;;;;;5083920;28;20435;-78
2022/11/29 02:36:17;;;;;;;52.28;28.70;;;;;;;;;;5085256;28;20826;-78
2022/11/29 02:39:04;;;;;;;49.20;28.23;;;;;;;;;;5082576;28;20462;-79
2022/11/29 02:41:37;;;;;;;56.25;29.02;;;;;;;;;;5052326;28;20427;-78
2022/11/29 02:44:22;;;;;;;53.80;29.15;;;;;;;;;;5082816;28;20490;-78
2022/11/29 02:46:54;;;;;;;53.35;29.77;;;;;;;;;;5079672;28;20932;-80
2022/11/29 02:49:34;;;;;;;52.20;28.85;;;;;;;;;;5080565;28;20796;-77
2022/11/29 02:52:01;;;;;;;53.78;29.45;;;;;;;;;;5079818;28;20904;-77
2022/11/29 02:54:29;;;;;;;57.63;29.58;;;;;;;;;;5078125;28;20412;-77
2022/11/29 02:56:58;;;;;;;62.65;29.95;;;;;;;;;;5084612;28;20414;-78
2022/11/29 02:59:39;;;;;;;55.22;29.45;;;;;;;;;;5082872;28;20414;-78
2022/11/29 03:02:13;;;;;;;53.20;29.77;;;;;;;;;;5076808;28;20437;-78
2022/11/29 03:04:46;;;;;;;53.10;29.98;;;;;;;;;;5075085;28;20456;-78
2022/11/29 03:07:15;;;;;;;55.15;30.05;;;;;;;;;;5076513;28;20436;-78
2022/11/29 03:09:44;;;;;;;54.85;29.50;;;;;;;;;;5060378;28;20432;-78
2022/11/29 03:12:17;;;;;;;55.72;31.48;;;;;;;;;;5074716;28;20919;-78
2022/11/29 03:14:50;;;;;;;57.97;30.45;;;;;;;;;;5075827;28;20422;-78
2022/11/29 03:17:20;;;;;;;56.47;29.45;;;;;;;;;;5077051;28;20481;-77
2022/11/29 03:20:00;;;;;;;54.58;29.33;;;;;;;;;;5080980;28;20860;-77
2022/11/29 03:22:33;;;;;;;63.90;29.75;;;;;;;;;;5075035;28;20438;-78
2022/11/29 03:25:03;;;;;;;58.30;30.10;;;;;;;;;;5079233;28;20428;-79
2022/11/29 03:27:35;;;;;;;66.90;30.60;;;;;;;;;;5080157;28;20791;-78
2022/11/29 03:30:04;;;;;;;59.08;30.33;;;;;;;;;;5079493;28;20412;-77
2022/11/29 03:32:35;;;;;;;56.92;30.42;;;;;;;;;;5079231;28;20424;-80
2022/11/29 03:35:07;;;;;;;58.25;31.45;;;;;;;;;;5080625;28;20473;-78
2022/11/29 03:37:38;;;;;;;55.15;29.60;;;;;;;;;;5082833;28;20789;-78
2022/11/29 03:40:06;;;;;;;58.90;31.40;;;;;;;;;;5077944;28;20420;-80
2022/11/29 03:42:35;;;;;;;61.00;30.75;;;;;;;;;;5082853;28;20412;-77
2022/11/29 03:45:04;;;;;;;55.35;29.25;;;;;;;;;;5082326;28;20416;-78
2022/11/29 03:47:35;;;;;;;58.92;30.08;;;;;;;;;;5078706;28;20550;-79
2022/11/29 03:50:05;;;;;;;61.50;31.10;;;;;;;;;;5080404;28;20422;-79
2022/11/29 03:52:33;;;;;;;52.17;29.25;;;;;;;;;;5077147;28;20438;-78
2022/11/29 03:55:05;;;;;;;46.47;28.02;;;;;;;;;;5080243;28;20421;-78
2022/11/29 03:57:34;;;;;;;51.75;28.58;;;;;;;;;;5084619;28;20410;-77
2022/11/29 04:00:03;;;;;;;48.73;27.97;;;;;;;;;;5073883;28;20500;-78
2022/11/29 04:02:40;;;;;;;49.85;28.25;;;;;;;;;;5082329;28;20461;-78
2022/11/29 04:05:17;;;;;;;47.30;28.02;;;;;;;;;;5060310;28;20428;-77
2022/11/29 04:07:46;;;;;;;44.42;26.75;;;;;;;;;;5077221;28;20423;-77
2022/11/29 04:10:17;;;;;;;46.42;27.45;;;;;;;;;;5068054;28;20416;-79
2022/11/29 04:12:53;;;;;;;47.28;26.52;;;;;;;;;;5075622;28;20427;-77
2022/11/29 04:15:37;;;;;;;49.67;27.48;;;;;;;;;;5079240;28;20421;-78
2022/11/29 04:18:14;;;;;;;43.57;26.30;;;;;;;;;;5082264;28;20428;-78
2022/11/29 04:21:07;;;;;;;43.20;26.65;;;;;;;;;;5072072;28;20423;-78
2022/11/29 04:23:56;;;;;;;41.00;26.73;;;;;;;;;;5077035;28;20856;-78
2022/11/29 04:26:41;;;;;;;42.17;25.70;;;;;;;;;;5070498;28;20428;-78
2022/11/29 04:29:29;;;;;;;43.72;25.67;;;;;;;;;;5071821;28;20414;-77
2022/11/29 04:32:11;;;;;;;44.65;25.90;;;;;;;;;;5072206;28;21104;-77
2022/11/29 04:34:59;;;;;;;43.20;24.75;;;;;;;;;;5076108;28;20426;-78
2022/11/29 04:37:49;;;;;;;40.15;25.40;;;;;;;;;;5073166;28;20432;-78
2022/11/29 04:40:46;;;;;;;43.03;25.45;;;;;;;;;;5076188;28;20418;-77
2022/11/29 04:43:23;;;;;;;45.70;26.75;;;;;;;;;;5076529;28;20433;-78
2022/11/29 04:46:04;;;;;;;42.57;26.70;;;;;;;;;;5079845;28;20423;-78
2022/11/29 04:48:42;;;;;;;44.08;25.48;;;;;;;;;;5078077;28;20442;-78
2022/11/29 04:51:15;;;;;;;48.67;27.70;;;;;;;;;;5073017;28;20423;-78
2022/11/29 04:53:49;;;;;;;46.60;26.30;;;;;;;;;;5073998;28;20486;-79
2022/11/29 04:56:25;;;;;;;47.58;25.77;;;;;;;;;;5080482;28;20796;-78
2022/11/29 04:58:55;;;;;;;52.70;27.90;;;;;;;;;;5080827;28;20421;-78
2022/11/29 05:01:25;;;;;;;52.60;27.42;;;;;;;;;;5079772;28;20424;-79
2022/11/29 05:03:58;;;;;;;45.72;27.05;;;;;;;;;;5078176;28;20422;-77
2022/11/29 05:06:28;;;;;;;50.38;30.73;;;;;;;;;;5076774;28;20421;-77
2022/11/29 05:08:58;;;;;;;49.38;27.42;;;;;;;;;;5072568;28;20913;-77
2022/11/29 05:11:32;;;;;;;47.13;27.08;;;;;;;;;;5071317;28;20937;-77
2022/11/29 05:14:03;;;;;;;47.95;26.35;;;;;;;;;;5072625;28;20763;-79
2022/11/29 05:16:41;;;;;;;54.35;29.27;;;;;;;;;;5067142;28;20433;-80
2022/11/29 05:19:14;;;;;;;53.80;28.60;;;;;;;;;;5070422;28;20788;-80
2022/11/29 05:21:45;;;;;;;57.42;28.50;;;;;;;;;;5079673;28;20427;-79
2022/11/29 05:24:17;;;;;;;55.20;28.92;;;;;;;;;;5073282;28;20424;-79
2022/11/29 05:26:49;;;;;;;52.25;27.58;;;;;;;;;;5069799;28;20426;-79
2022/11/29 05:29:20;;;;;;;53.17;29.17;;;;;;;;;;5076742;28;20439;-80
2022/11/29 05:31:54;;;;;;;51.90;29.53;;;;;;;;;;5078491;28;20448;-79
2022/11/29 05:34:38;;;;;;;63.33;30.65;;;;;;;;;;5073838;28;20448;-79
2022/11/29 05:37:13;;;;;;;52.40;28.93;;;;;;;;;;5077046;28;20418;-79
2022/11/29 05:39:46;;;;;;;54.88;29.70;;;;;;;;;;5079186;28;20907;-79
2022/11/29 05:42:32;;;;;;;59.40;28.70;;;;;;;;;;5072390;28;20430;-80
2022/11/29 05:45:01;;;;;;;56.55;29.63;;;;;;;;;;5078471;28;20772;-78
2022/11/29 05:47:31;;;;;;;52.38;28.60;;;;;;;;;;5058446;28;20435;-78
2022/11/29 05:50:03;;;;;;;47.95;27.52;;;;;;;;;;5080083;28;20432;-78
2022/11/29 05:52:36;;;;;;;56.72;28.63;;;;;;;;;;5079681;28;20427;-79
2022/11/29 05:55:10;;;;;;;55.60;29.27;;;;;;;;;;5077931;28;20425;-79
2022/11/29 05:57:42;;;;;;;52.08;28.95;;;;;;;;;;5076078;28;20433;-78
2022/11/29 06:00:10;;;;;;;55.90;30.02;;;;;;;;;;5083290;28;20426;-78
2022/11/29 06:02:49;;;;;;;58.50;29.15;;;;;;;;;;5072726;28;20431;-78
2022/11/29 06:05:19;;;;;;;56.35;30.13;;;;;;;;;;5082522;28;20426;-78
2022/11/29 06:07:51;;;;;;;54.67;29.60;;;;;;;;;;5081481;28;20436;-77
2022/11/29 06:10:18;;;;;;;50.42;29.60;;;;;;;;;;5078999;28;20428;-79
2022/11/29 06:12:54;;;;;;;52.83;30.48;;;;;;;;;;5081364;28;20429;-79
2022/11/29 06:15:35;;;;;;;59.80;30.03;;;;;;;;;;5080353;28;20892;-79
2022/11/29 06:18:08;;;;;;;52.83;30.27;;;;;;;;;;5057191;28;20435;-80
2022/11/29 06:20:53;;;;;;;59.00;30.30;;;;;;;;;;5059953;28;20430;-78
2022/11/29 06:23:27;;;;;;;54.90;30.55;;;;;;;;;;5079512;28;20778;-78
2022/11/29 06:25:59;;;;;;;56.45;30.33;;;;;;;;;;5073848;28;20434;-78
2022/11/29 06:28:40;;;;;;;54.45;30.13;;;;;;;;;;5075456;28;20432;-79
2022/11/29 06:31:16;;;;;;;57.13;31.95;;;;;;;;;;5078838;28;20415;-79
2022/11/29 06:33:46;;;;;;;65.03;35.90;;;;;;;;;;5072135;28;21453;-77
2022/11/29 06:36:15;;;;;;;67.15;36.03;;;;;;;;;;5071871;28;20431;-78
2022/11/29 06:38:42;;;;;;;71.93;37.03;;;;;;;;;;5068386;28;20435;-77
2022/11/29 06:41:13;;;;;;;62.92;35.15;;;;;;;;;;5073009;28;20443;-78
2022/11/29 06:43:39;;;;;;;58.80;34.23;;;;;;;;;;5075795;28;20422;-78
2022/11/29 06:46:12;;;;;;;58.75;32.95;;;;;;;;;;5081213;28;20427;-78
2022/11/29 06:48:44;;;;;;;58.88;30.63;;;;;;;;;;5081914;28;20795;-77
2022/11/29 06:51:14;;;;;;;49.13;29.38;;;;;;;;;;5079377;28;20406;-79
2022/11/29 06:53:43;;;;;;;52.03;29.87;;;;;;;;;;5084486;28;20510;-77
2022/11/29 06:56:15;;;;;;;59.28;31.70;;;;;;;;;;5080753;28;20415;-78
2022/11/29 06:58:45;;;;;;;57.33;29.65;;;;;;;;;;5077684;28;20429;-78
2022/11/29 07:01:19;;;;;;;54.10;30.55;;;;;;;;;;5078999;28;20787;-78
2022/11/29 07:03:58;;;;;;;53.97;30.63;;;;;;;;;;5077012;28;20518;-78
2022/11/29 07:06:26;;;;;;;63.85;32.25;;;;;;;;;;5083903;28;20887;-80
2022/11/29 07:08:53;;;;;;;59.03;33.50;;;;;;;;;;5078066;28;20446;-78
2022/11/29 07:11:20;;;;;;;65.30;33.80;;;;;;;;;;5084003;28;20409;-80
2022/11/29 07:13:47;;;;;;;59.13;33.28;;;;;;;;;;5084543;28;20424;-77
2022/11/29 07:16:17;;;;;;;64.63;33.05;;;;;;;;;;5072894;28;20423;-77
2022/11/29 07:18:48;;;;;;;58.80;32.30;;;;;;;;;;5077913;28;20805;-78
2022/11/29 07:21:19;;;;;;;65.07;33.75;;;;;;;;;;5084325;28;20824;-77
2022/11/29 07:23:52;;;;;;;63.58;31.35;;;;;;;;;;5072559;28;20430;-77
2022/11/29 07:26:21;;;;;;;62.67;33.58;;;;;;;;;;5080139;28;20422;-77
2022/11/29 07:29:00;;;;;;;64.00;31.80;;;;;;;;;;5075240;28;20429;-77
2022/11/29 07:31:33;;;;;;;58.47;33.00;;;;;;;;;;5082910;28;20426;-77
2022/11/29 07:34:05;;;;;;;65.57;32.92;;;;;;;;;;5078285;28;20416;-77
2022/11/29 07:36:40;;;;;;;58.92;31.60;;;;;;;;;;5083121;28;20942;-77
2022/11/29 07:39:14;;;;;;;61.55;33.60;;;;;;;;;;5077299;28;20415;-77
2022/11/29 07:41:43;;;;;;;65.70;34.27;;;;;;;;;;5085517;28;20418;-78
2022/11/29 07:44:12;;;;;;;66.97;34.65;;;;;;;;;;5078450;28;20418;-79
2022/11/29 07:46:39;;;;;;;67.47;32.50;;;;;;;;;;5077531;28;20405;-78
2022/11/29 07:49:06;;;;;;;70.83;35.50;;;;;;;;;;5080763;28;20413;-78
2022/11/29 07:51:32;;;;;;;65.95;34.67;;;;;;;;;;5076162;28;20429;-79
2022/11/29 07:54:00;;;;;;;71.60;34.07;;;;;;;;;;5080005;28;20874;-78
2022/11/29 07:56:27;;;;;;;62.42;33.08;;;;;;;;;;5080020;28;20414;-78
2022/11/29 07:58:53;;;;;;;70.22;33.10;;;;;;;;;;5083892;28;21070;-77
2022/11/29 08:01:19;;;;;;;66.63;33.80;;;;;;;;;;5082658;28;20420;-78
2022/11/29 08:03:46;;;;;;;69.28;36.22;;;;;;;;;;5077681;28;20418;-78
2022/11/29 08:06:12;;;;;;;66.63;34.65;;;;;;;;;;5077023;28;20436;-79
2022/11/29 08:08:38;;;;;;;61.60;33.63;;;;;;;;;;5077857;28;20406;-78
2022/11/29 08:11:11;;;;;;;73.40;35.67;;;;;;;;;;5078047;28;20431;-79
2022/11/29 08:13:38;;;;;;;73.68;35.47;;;;;;;;;;5079577;28;20419;-79
2022/11/29 08:16:04;;;;;;;59.63;32.50;;;;;;;;;;5076698;28;20407;-78
2022/11/29 08:18:30;;;;;;;68.13;35.75;;;;;;;;;;5081014;28;20413;-79
2022/11/29 08:20:57;;;;;;;71.20;35.80;;;;;;;;;;5080283;28;20416;-78
2022/11/29 08:23:23;;;;;;;71.17;34.90;;;;;;;;;;5078510;28;20406;-78
2022/11/29 08:25:50;;;;;;;76.47;35.97;;;;;;;;;;5076452;28;20950;-78
2022/11/29 08:28:18;;;;;;;66.65;34.13;;;;;;;;;;5074691;28;20781;-78
2022/11/29 08:30:45;;;;;;;71.00;34.42;;;;;;;;;;5075411;28;20418;-79
2022/11/29 08:33:11;;;;;;;67.45;33.67;;;;;;;;;;5077288;28;20423;-79
2022/11/29 08:35:38;;;;;;;70.35;36.53;;;;;;;;;;5074587;28;20957;-78
2022/11/29 08:38:05;;;;;;;67.32;34.30;;;;;;;;;;5077604;28;20944;-78
2022/11/29 08:40:32;;;;;;;66.20;34.28;;;;;;;;;;5076197;28;20482;-78
2022/11/29 08:42:58;;;;;;;67.25;34.85;;;;;;;;;;5073473;28;20426;-78
2022/11/29 08:45:27;;;;;;;68.82;33.90;;;;;;;;;;5072088;28;20420;-78
2022/11/29 08:47:53;;;;;;;67.80;33.13;;;;;;;;;;5080699;28;20496;-78
2022/11/29 08:50:21;;;;;;;71.95;35.13;;;;;;;;;;5081466;28;20410;-78
2022/11/29 08:55:35;;;;;;;76.05;37.30;;;;;;;;;;5079849;28;20973;-78
2022/11/29 08:58:02;;;;;;;63.83;35.33;;;;;;;;;;5082266;28;20433;-80
2022/11/29 09:00:31;;;;;;;64.60;33.90;;;;;;;;;;5075877;28;20440;-77
2022/11/29 09:03:58;;;;;;;67.10;35.50;;;;;;;;;;5081591;28;20411;-80
2022/11/29 09:05:44;;;;;;;65.40;33.50;;;;;;;;;;5082085;28;20445;-80
2022/11/29 09:08:10;;;;;;;65.07;34.80;;;;;;;;;;5081126;28;20805;-79
2022/11/29 09:10:37;;;;;;;76.75;38.20;;;;;;;;;;5078017;28;20411;-78
2022/11/29 09:13:04;;;;;;;69.03;37.47;;;;;;;;;;5077260;28;20412;-78
2022/11/29 09:15:31;;;;;;;76.47;37.50;;;;;;;;;;5082439;28;20418;-79
2022/11/29 09:17:58;;;;;;;65.30;34.80;;;;;;;;;;5080962;28;20431;-79
2022/11/29 09:20:24;;;;;;;71.22;36.30;;;;;;;;;;5084952;28;20416;-79
2022/11/29 09:22:51;;;;;;;73.38;36.30;;;;;;;;;;5079596;28;20810;-79
2022/11/29 09:25:18;;;;;;;69.72;36.45;;;;;;;;;;5084675;28;20427;-80
2022/11/29 09:27:44;;;;;;;68.73;35.63;;;;;;;;;;5079671;28;20936;-78
2022/11/29 09:30:11;;;;;;;78.68;38.65;;;;;;;;;;5079700;28;20919;-78
2022/11/29 09:32:39;;;;;;;73.30;36.80;;;;;;;;;;5080622;28;20426;-78
2022/11/29 09:35:05;;;;;;;63.42;36.30;;;;;;;;;;5079996;28;20425;-78
2022/11/29 09:37:32;;;;;;;69.88;36.15;;;;;;;;;;5080234;28;20456;-78
2022/11/29 09:39:58;;;;;;;66.35;37.40;;;;;;;;;;5080438;28;20415;-78
2022/11/29 09:42:31;;;;;;;74.47;37.83;;;;;;;;;;5082906;28;20415;-78
2022/11/29 09:45:02;;;;;;;66.00;37.20;;;;;;;;;;5079206;28;20409;-79
2022/11/29 09:47:35;;;;;;;64.35;36.60;;;;;;;;;;5083266;28;20405;-77
2022/11/29 09:50:11;;;;;;;59.50;35.67;;;;;;;;;;5082129;28;20415;-79
2022/11/29 09:52:43;;;;;;;68.32;36.13;;;;;;;;;;5084531;28;20414;-80
2022/11/29 09:55:20;;;;;;;66.60;36.20;;;;;;;;;;5080556;28;20431;-77
2022/11/29 09:57:46;;;;;;;61.70;34.92;;;;;;;;;;5084326;28;20411;-78
2022/11/29 10:00:15;;;;;;;62.38;36.80;;;;;;;;;;5079919;28;20419;-77
2022/11/29 10:02:46;;;;;;;70.65;36.58;;;;;;;;;;5085509;28;20882;-79
2022/11/29 10:05:19;;;;;;;59.45;35.50;;;;;;;;;;5074019;28;20420;-77
2022/11/29 10:07:49;;;;;;;64.45;35.85;;;;;;;;;;5077736;28;20438;-77
2022/11/29 10:10:18;;;;;;;57.45;34.05;;;;;;;;;;5087706;28;20418;-78
2022/11/29 10:12:46;;;;;;;66.35;36.90;;;;;;;;;;5087788;28;20410;-77
2022/11/29 10:15:15;;;;;;;60.45;35.03;;;;;;;;;;5083553;28;20801;-77
2022/11/29 10:17:45;;;;;;;63.83;34.50;;;;;;;;;;5085464;28;20418;-78
2022/11/29 10:20:14;;;;;;;60.22;34.53;;;;;;;;;;5077816;28;20917;-77
2022/11/29 10:22:48;;;;;;;60.90;34.95;;;;;;;;;;5081045;28;20432;-78
2022/11/29 10:25:19;;;;;;;57.50;33.67;;;;;;;;;;5057990;28;20423;-79
2022/11/29 10:27:46;;;;;;;62.83;35.10;;;;;;;;;;5084137;28;20402;-80
2022/11/29 10:30:14;;;;;;;62.75;35.42;;;;;;;;;;5081478;28;20793;-78
2022/11/29 10:32:43;;;;;;;62.88;34.03;;;;;;;;;;5083974;28;20499;-78
2022/11/29 10:35:12;;;;;;;66.35;37.03;;;;;;;;;;5075736;28;20423;-79
2022/11/29 10:37:39;;;;;;;62.72;36.33;;;;;;;;;;5079220;28;20477;-77
2022/11/29 10:40:12;;;;;;;64.80;36.70;;;;;;;;;;5081520;28;20435;-77
2022/11/29 10:42:52;;;;;;;63.88;37.30;;;;;;;;;;5080945;28;20428;-78
2022/11/29 10:45:23;;;;;;;63.17;36.50;;;;;;;;;;5085689;28;20419;-78
2022/11/29 10:47:50;;;;;;;61.97;35.42;;;;;;;;;;5079604;28;20415;-78
2022/11/29 10:50:18;;;;;;;62.03;36.00;;;;;;;;;;5080903;28;20405;-77
2022/11/29 10:52:45;;;;;;;63.40;35.53;;;;;;;;;;5078439;28;20434;-78
2022/11/29 10:55:14;;;;;;;60.05;35.35;;;;;;;;;;5078755;28;20935;-78
2022/11/29 10:57:55;;;;;;;59.53;33.75;;;;;;;;;;5081533;28;20458;-78
2022/11/29 11:00:22;;;;;;;55.70;33.90;;;;;;;;;;5082888;28;20479;-78
2022/11/29 11:02:48;;;;;;;52.55;32.58;;;;;;;;;;5082974;28;20408;-79
2022/11/29 11:05:18;;;;;;;55.80;32.28;;;;;;;;;;5086349;28;20425;-78
2022/11/29 11:07:46;;;;;;;59.23;34.10;;;;;;;;;;5077942;28;20462;-80
2022/11/29 11:10:21;;;;;;;59.13;33.65;;;;;;;;;;5080846;28;20418;-78
2022/11/29 11:13:00;;;;;;;60.73;33.80;;;;;;;;;;5084102;28;20421;-78
2022/11/29 11:15:28;;;;;;;60.47;33.60;;;;;;;;;;5083273;28;20421;-79
2022/11/29 11:17:55;;;;;;;57.03;33.70;;;;;;;;;;5084291;28;20428;-78
2022/11/29 11:20:22;;;;;;;60.85;34.22;;;;;;;;;;5076953;28;20419;-78
2022/11/29 11:22:56;;;;;;;55.85;32.67;;;;;;;;;;5081355;28;20799;-77
2022/11/29 11:25:27;;;;;;;54.58;33.53;;;;;;;;;;5084056;28;20901;-78
2022/11/29 11:27:54;;;;;;;62.60;35.87;;;;;;;;;;5081779;28;20416;-79
2022/11/29 11:30:22;;;;;;;56.05;34.03;;;;;;;;;;5082311;28;20410;-79
2022/11/29 11:33:04;;;;;;;55.97;33.13;;;;;;;;;;5081465;28;20430;-81
2022/11/29 11:35:30;;;;;;;61.40;35.75;;;;;;;;;;5077310;28;20428;-79
2022/11/29 11:37:57;;;;;;;57.77;33.83;;;;;;;;;;5081120;28;20435;-79
2022/11/29 11:40:27;;;;;;;54.78;32.90;;;;;;;;;;5079789;28;20414;-78
2022/11/29 11:42:56;;;;;;;52.53;32.67;;;;;;;;;;5078057;28;20963;-77
2022/11/29 11:45:27;;;;;;;58.97;34.15;;;;;;;;;;5079654;28;20410;-77
2022/11/29 11:47:54;;;;;;;54.05;33.33;;;;;;;;;;5079593;28;21691;-78
2022/11/29 11:50:31;;;;;;;57.28;35.35;;;;;;;;;;5077284;28;20403;-78
2022/11/29 11:52:58;;;;;;;56.40;33.95;;;;;;;;;;5077668;28;20799;-78
2022/11/29 11:55:30;;;;;;;59.33;32.45;;;;;;;;;;5079994;28;20434;-79
2022/11/29 11:58:02;;;;;;;52.78;32.70;;;;;;;;;;5078350;28;20974;-80
2022/11/29 12:00:39;;;;;;;55.78;32.05;;;;;;;;;;5084009;28;20416;-79
2022/11/29 12:03:05;;;;;;;55.05;31.42;;;;;;;;;;5082608;28;20756;-79
2022/11/29 12:05:32;;;;;;;57.70;32.95;;;;;;;;;;5080853;28;20417;-78
2022/11/29 12:08:01;;;;;;;53.05;31.35;;;;;;;;;;5077505;28;20430;-79
2022/11/29 12:10:33;;;;;;;58.40;33.97;;;;;;;;;;5081128;28;20414;-79
2022/11/29 12:13:00;;;;;;;55.70;32.78;;;;;;;;;;5076667;28;20522;-79
2022/11/29 12:15:28;;;;;;;52.23;31.00;;;;;;;;;;5080781;28;20418;-79
2022/11/29 12:17:57;;;;;;;61.75;33.28;;;;;;;;;;5079114;28;20414;-78
2022/11/29 12:20:27;;;;;;;62.50;32.95;;;;;;;;;;5081363;28;20783;-80
2022/11/29 12:23:03;;;;;;;57.67;32.05;;;;;;;;;;5078349;28;20431;-79
2022/11/29 12:25:33;;;;;;;55.80;33.00;;;;;;;;;;5076218;28;20431;-80
2022/11/29 12:27:59;;;;;;;57.85;33.00;;;;;;;;;;5078348;28;20426;-79
2022/11/29 12:30:26;;;;;;;55.78;32.10;;;;;;;;;;5062420;28;20403;-80
2022/11/29 12:33:07;;;;;;;53.63;31.75;;;;;;;;;;5080849;28;20409;-80
2022/11/29 12:35:41;;;;;;;53.40;31.15;;;;;;;;;;5077249;28;20498;-80
2022/11/29 12:38:13;;;;;;;49.30;30.15;;;;;;;;;;5078966;28;20406;-80
2022/11/29 12:40:47;;;;;;;47.33;30.50;;;;;;;;;;5059814;28;20435;-80
2022/11/29 12:43:22;;;;;;;49.20;29.77;;;;;;;;;;5078507;28;20414;-80
2022/11/29 12:45:50;;;;;;;49.30;30.30;;;;;;;;;;5080056;28;20423;-78
2022/11/29 12:48:23;;;;;;;48.08;29.60;;;;;;;;;;5081347;28;20756;-78
2022/11/29 12:50:55;;;;;;;52.30;29.80;;;;;;;;;;5081587;28;20419;-78
2022/11/29 12:53:27;;;;;;;50.25;30.35;;;;;;;;;;5069733;28;20426;-78
2022/11/29 12:56:06;;;;;;;51.17;30.90;;;;;;;;;;5081247;28;20418;-79
2022/11/29 12:58:38;;;;;;;47.70;28.60;;;;;;;;;;5081632;28;20484;-80
2022/11/29 13:01:08;;;;;;;47.25;29.00;;;;;;;;;;5079512;28;20440;-78
2022/11/29 13:03:39;;;;;;;49.63;29.65;;;;;;;;;;5079737;28;20417;-77
2022/11/29 13:06:11;;;;;;;47.58;28.48;;;;;;;;;;5074632;28;20419;-79
2022/11/29 13:08:56;;;;;;;40.20;27.15;;;;;;;;;;5077835;28;20421;-80
2022/11/29 13:11:25;;;;;;;45.90;28.02;;;;;;;;;;5079455;28;20406;-79
2022/11/29 13:13:55;;;;;;;41.17;26.88;;;;;;;;;;5072455;28;20905;-79
2022/11/29 13:16:29;;;;;;;44.40;27.20;;;;;;;;;;5079069;28;20423;-80
2022/11/29 13:18:59;;;;;;;41.80;26.53;;;;;;;;;;5078128;28;20492;-79
2022/11/29 13:21:29;;;;;;;44.80;28.00;;;;;;;;;;5080043;28;20418;-77
2022/11/29 13:23:59;;;;;;;41.60;24.95;;;;;;;;;;5076191;28;20553;-77
2022/11/29 13:26:27;;;;;;;37.78;25.73;;;;;;;;;;5072195;28;20435;-78
2022/11/29 13:28:54;;;;;;;39.13;25.30;;;;;;;;;;5079050;28;20438;-78
2022/11/29 13:31:21;;;;;;;40.77;25.40;;;;;;;;;;5077178;28;20412;-78
2022/11/29 13:34:03;;;;;;;39.55;26.40;;;;;;;;;;5076058;28;20909;-79
2022/11/29 13:36:35;;;;;;;39.92;25.50;;;;;;;;;;5084463;28;20414;-78
2022/11/29 13:39:07;;;;;;;40.42;25.92;;;;;;;;;;5080565;28;20413;-78
2022/11/29 13:41:37;;;;;;;43.85;25.65;;;;;;;;;;5078915;28;20439;-79
2022/11/29 13:44:14;;;;;;;42.17;26.15;;;;;;;;;;5079679;28;20435;-79
2022/11/29 13:46:44;;;;;;;42.25;26.58;;;;;;;;;;5080638;28;20433;-79
2022/11/29 13:49:19;;;;;;;46.58;27.23;;;;;;;;;;5078390;28;20408;-79
2022/11/29 13:51:45;;;;;;;41.20;27.33;;;;;;;;;;5080095;28;20415;-78
2022/11/29 13:54:26;;;;;;;43.55;26.15;;;;;;;;;;5075132;28;20412;-79
2022/11/29 13:57:06;;;;;;;44.67;27.52;;;;;;;;;;5072556;28;20412;-79
2022/11/29 13:59:33;;;;;;;46.42;27.05;;;;;;;;;;5077943;28;20412;-77
2022/11/29 14:02:00;;;;;;;44.42;28.65;;;;;;;;;;5079348;28;20909;-78
2022/11/29 14:04:32;;;;;;;45.77;28.10;;;;;;;;;;5077730;28;20405;-77
2022/11/29 14:07:20;;;;;;;44.40;27.10;;;;;;;;;;5079654;28;20416;-79
2022/11/29 14:09:55;;;;;;;45.45;28.52;;;;;;;;;;5073888;28;20469;-78
2022/11/29 14:12:41;;;;;;;48.35;29.55;;;;;;;;;;5076460;28;20413;-78
2022/11/29 14:15:21;;;;;;;50.50;30.80;;;;;;;;;;5084984;28;20425;-79
2022/11/29 14:17:49;;;;;;;50.15;30.00;;;;;;;;;;5081422;28;20407;-77
2022/11/29 14:20:34;;;;;;;54.55;31.40;;;;;;;;;;5078977;28;20917;-79
2022/11/29 14:23:14;;;;;;;49.55;29.50;;;;;;;;;;5083580;28;20411;-78
2022/11/29 14:25:42;;;;;;;52.13;30.90;;;;;;;;;;5081149;28;20995;-79
2022/11/29 14:28:24;;;;;;;48.43;29.50;;;;;;;;;;5076702;28;20983;-78
2022/11/29 14:30:52;;;;;;;53.05;31.92;;;;;;;;;;5080758;28;20410;-77
2022/11/29 14:33:38;;;;;;;54.25;31.30;;;;;;;;;;5082383;28;20884;-78
2022/11/29 14:36:13;;;;;;;50.03;30.60;;;;;;;;;;5084042;28;20926;-77
2022/11/29 14:38:43;;;;;;;54.70;32.13;;;;;;;;;;5079333;28;20422;-78
2022/11/29 14:41:17;;;;;;;55.45;32.88;;;;;;;;;;5080387;28;20433;-78
2022/11/29 14:43:43;;;;;;;58.25;31.95;;;;;;;;;;5081001;28;20784;-80